createdAt,value
2019-02-22T08:40:03.772Z,1033.67
2019-02-22T08:50:04.435Z,1033.59
2019-02-22T09:00:04.737Z,1033.83
2019-02-22T09:10:03.809Z,1033.99
2019-02-22T09:20:03.238Z,1034.11
2019-02-22T09:30:04.331Z,1034.17
2019-02-22T09:40:03.295Z,1034.21
2019-02-22T09:50:03.259Z,1034.14
2019-02-22T10:00:04.075Z,1034.16
2019-02-22T10:10:03.314Z,1034.22
2019-02-22T10:20:03.497Z,1034.60
2019-02-22T10:30:03.674Z,1034.81
2019-02-22T10:40:03.862Z,1034.86
2019-02-22T10:50:03.250Z,1034.96
2019-02-22T11:00:03.735Z,1034.87
2019-02-22T11:10:03.529Z,1034.93
2019-02-22T11:20:05.297Z,1035.01
2019-02-22T11:30:04.436Z,1035.06
2019-02-22T11:40:03.259Z,1035.05
2019-02-22T11:50:03.403Z,1035.00
2019-02-22T12:00:04.254Z,1034.96
2019-02-22T12:10:03.635Z,1035.04
2019-02-22T12:20:04.086Z,1035.07
2019-02-22T12:30:04.197Z,1035.04
2019-02-22T12:40:03.195Z,1035.14
2019-02-22T12:50:03.301Z,1035.05
2019-02-22T13:00:04.159Z,1035.07
2019-02-22T13:10:03.116Z,1035.17
2019-02-22T13:20:03.298Z,1035.26
2019-02-22T13:30:04.412Z,1035.31
2019-02-22T13:40:03.108Z,1035.39
2019-02-22T13:50:03.002Z,1035.48
2019-02-22T14:00:03.753Z,1035.43
2019-02-22T14:10:03.197Z,1035.56
2019-02-22T14:20:03.415Z,1035.60
2019-02-22T14:30:07.218Z,1035.67
2019-02-22T14:40:04.659Z,1035.67
2019-02-22T14:50:03.384Z,1035.83
2019-02-22T15:00:04.183Z,1035.84
2019-02-22T15:10:03.197Z,1035.94
2019-02-22T15:20:03.572Z,1036.00
2019-02-22T15:30:03.992Z,1036.11
2019-02-22T15:40:03.725Z,1036.24
2019-02-22T15:50:03.658Z,1036.33
2019-02-22T16:00:04.180Z,1036.43
2019-02-22T16:10:02.978Z,1036.57
2019-02-22T16:20:03.629Z,1036.62
2019-02-22T16:30:04.103Z,1036.71
2019-02-22T16:40:03.198Z,1036.81
2019-02-22T16:50:03.423Z,1036.89
2019-02-22T17:00:04.109Z,1036.95
2019-02-22T17:10:03.143Z,1036.92
2019-02-22T17:20:03.208Z,1037.06
2019-02-22T17:30:04.314Z,1037.16
2019-02-22T17:40:03.128Z,1037.29
2019-02-22T17:50:03.132Z,1037.39
2019-02-22T18:00:03.724Z,1037.61
2019-02-22T18:10:03.610Z,1037.62
2019-02-22T18:20:02.967Z,1037.72
2019-02-22T18:30:04.038Z,1037.77
2019-02-22T18:40:02.818Z,1037.80
2019-02-22T18:50:03.721Z,1037.84
2019-02-22T19:00:04.528Z,1038.08
2019-02-22T19:10:03.543Z,1038.21
2019-02-22T19:20:03.795Z,1038.34
2019-02-22T19:30:04.393Z,1038.47
2019-02-22T19:40:03.157Z,1038.61
2019-02-22T19:50:03.101Z,1038.75
2019-02-22T20:00:03.858Z,1038.76
2019-02-22T20:10:02.793Z,1038.78
2019-02-22T20:20:02.920Z,1038.97
2019-02-22T20:30:04.004Z,1038.99
2019-02-22T20:40:03.053Z,1039.11
2019-02-22T20:50:03.053Z,1039.27
2019-02-22T21:00:03.602Z,1039.29
2019-02-22T21:10:03.471Z,1039.44
2019-02-22T21:20:03.448Z,1039.70
2019-02-22T21:30:03.486Z,1039.86
2019-02-22T21:40:03.579Z,1039.67
2019-02-22T21:50:03.392Z,1039.80
2019-02-22T22:00:03.939Z,1039.78
2019-02-22T22:10:03.415Z,1039.82
2019-02-22T22:20:03.679Z,1039.88
2019-02-22T22:30:04.283Z,1039.93
2019-02-22T22:40:03.070Z,1040.01
2019-02-22T22:50:02.883Z,1040.09
2019-02-22T23:00:03.733Z,1040.07
2019-02-22T23:10:03.298Z,1040.05
2019-02-22T23:20:03.384Z,1040.08
2019-02-22T23:30:04.481Z,1040.06
2019-02-22T23:40:03.306Z,1040.22
2019-02-22T23:50:03.389Z,1040.21
